Hiyodori — JD2366 — position and weather

sailwx.info

Track history (hours):
 
Tides and Currents Weather Stations Pressure Air Temp Water Temp Dewpoint Dewpoint Depression Visibility Wind Speed Wind Dir Waves Ship Positions

Hiyodori

Last reported at 2016-Sep-26 02:33 UTC. Time now 2016-Sep-26 12:16 UTC.
Position N 34°58' E 139°30'.

Length 88 m; draft 3.6 m.

Type: Cargo ship. MMSI: 431000132.

Date/timePositionNaut miles runAvg speedWind from/ knotsBaromVisibWave heightAir tempDewpointWater temp
2016-Sep-26 02:33N 34°58' E 139°30'1212.3
2016-Sep-26 01:33N 35°06' E 139°41'1111.4
2016-Sep-26 00:34N 35°17' E 139°45'13 4.2
2016-Sep-25 21:33N 35°29' E 139°39'0 0.0
2016-Sep-25 17:33N 35°29' E 139°39'0 0.0
2016-Sep-25 16:33N 35°29' E 139°39'0 0.0
2016-Sep-25 15:33N 35°29' E 139°39'0 0.0
2016-Sep-25 14:33N 35°29' E 139°39'0 0.0
2016-Sep-25 12:33N 35°29' E 139°39'0 0.0
2016-Sep-25 11:33N 35°29' E 139°39'0 0.0
2016-Sep-25 10:33N 35°29' E 139°39'0 0.0
2016-Sep-25 09:33N 35°29' E 139°39'0 0.0
2016-Sep-25 07:33N 35°29' E 139°39'0 0.0
2016-Sep-25 04:33N 35°29' E 139°39'0 0.0
2016-Sep-25 00:33N 35°29' E 139°39'6 3.1
2016-Sep-24 22:33N 35°24' E 139°44'1 1.3
2016-Sep-24 21:32N 35°23' E 139°44'0 0.0
2016-Sep-24 19:32N 35°23' E 139°44'0 0.4
2016-Sep-24 18:33N 35°22' E 139°44'3 2.9
2016-Sep-24 17:32N 35°24' E 139°41'0 0.0
2016-Sep-24 16:32N 35°24' E 139°41'3 1.5
2016-Sep-24 14:32N 35°23' E 139°44'0 0.0
2016-Sep-24 12:32N 35°23' E 139°44'0 0.1
2016-Sep-24 10:32N 35°23' E 139°44'0 0.0
2016-Sep-24 09:32N 35°23' E 139°44'9 1.6
2016-Sep-24 03:33N 35°14' E 139°47'1111.3
2016-Sep-24 02:32N 35°03' E 139°41'23 0.5
2016-Sep-22 04:33N 35°26' E 139°41'1 0.7
2016-Sep-22 03:34N 35°27' E 139°41'10 3.3
2016-Sep-22 00:29N 35°36' E 139°46'0 0.0
2016-Sep-21 23:33N 35°36' E 139°46'9 8.7
2016-Sep-21 22:33N 35°29' E 139°52'37 1.8
2016-Sep-21 02:22N 34°58' E 139°27'42 4.7
2016-Sep-20 17:27N 35°34' E 139°53'0 0.0
2016-Sep-20 14:24N 35°34' E 139°53'0 0.0
2016-Sep-20 13:18N 35°34' E 139°53'0 0.0
2016-Sep-20 10:33N 35°34' E 139°53'0 0.1
2016-Sep-20 08:33N 35°34' E 139°52'0 0.0
2016-Sep-20 07:33N 35°34' E 139°52'0 0.0
2016-Sep-20 06:24N 35°34' E 139°53'0 0.0
2016-Sep-20 02:33N 35°34' E 139°53'6 1.9
2016-Sep-19 23:33N 35°36' E 139°46'  
2016-Sep-17 12:28N 34°57' E 139°25'2110.8
2016-Sep-17 10:33N 35°11' E 139°44'1111.1
2016-Sep-17 09:33N 35°22' E 139°42'3 2.7
2016-Sep-17 08:33N 35°24' E 139°41'0 0.1
2016-Sep-17 07:34N 35°24' E 139°41'6 3.1
2016-Sep-17 05:33N 35°29' E 139°45'3 3.4
2016-Sep-17 04:33N 35°26' E 139°46'  
Track history (hours):
 
Tides and Currents Weather Stations Pressure Air Temp Water Temp Dewpoint Dewpoint Depression Visibility Wind Speed Wind Dir Waves Ship Positions

Hiyodori

Last reported at 2016-Sep-26 02:33 UTC. Time now 2016-Sep-26 12:16 UTC.
Position N 34°58' E 139°30'.

Length 88 m; draft 3.6 m.

Type: Cargo ship. MMSI: 431000132.

Date/timePositionNaut miles runAvg speedWind from/ knotsBaromVisibWave heightAir tempDewpointWater temp
2016-Sep-26 02:33N 34°58' E 139°30'1212.3
2016-Sep-26 01:33N 35°06' E 139°41'1111.4
2016-Sep-26 00:34N 35°17' E 139°45'13 4.2
2016-Sep-25 21:33N 35°29' E 139°39'0 0.0
2016-Sep-25 17:33N 35°29' E 139°39'0 0.0
2016-Sep-25 16:33N 35°29' E 139°39'0 0.0
2016-Sep-25 15:33N 35°29' E 139°39'0 0.0
2016-Sep-25 14:33N 35°29' E 139°39'0 0.0
2016-Sep-25 12:33N 35°29' E 139°39'0 0.0
2016-Sep-25 11:33N 35°29' E 139°39'0 0.0
2016-Sep-25 10:33N 35°29' E 139°39'0 0.0
2016-Sep-25 09:33N 35°29' E 139°39'0 0.0
2016-Sep-25 07:33N 35°29' E 139°39'0 0.0
2016-Sep-25 04:33N 35°29' E 139°39'0 0.0
2016-Sep-25 00:33N 35°29' E 139°39'6 3.1
2016-Sep-24 22:33N 35°24' E 139°44'1 1.3
2016-Sep-24 21:32N 35°23' E 139°44'0 0.0
2016-Sep-24 19:32N 35°23' E 139°44'0 0.4
2016-Sep-24 18:33N 35°22' E 139°44'3 2.9
2016-Sep-24 17:32N 35°24' E 139°41'0 0.0
2016-Sep-24 16:32N 35°24' E 139°41'3 1.5
2016-Sep-24 14:32N 35°23' E 139°44'0 0.0
2016-Sep-24 12:32N 35°23' E 139°44'0 0.1
2016-Sep-24 10:32N 35°23' E 139°44'0 0.0
2016-Sep-24 09:32N 35°23' E 139°44'9 1.6
2016-Sep-24 03:33N 35°14' E 139°47'1111.3
2016-Sep-24 02:32N 35°03' E 139°41'23 0.5
2016-Sep-22 04:33N 35°26' E 139°41'1 0.7
2016-Sep-22 03:34N 35°27' E 139°41'10 3.3
2016-Sep-22 00:29N 35°36' E 139°46'0 0.0
2016-Sep-21 23:33N 35°36' E 139°46'9 8.7
2016-Sep-21 22:33N 35°29' E 139°52'37 1.8
2016-Sep-21 02:22N 34°58' E 139°27'42 4.7
2016-Sep-20 17:27N 35°34' E 139°53'0 0.0
2016-Sep-20 14:24N 35°34' E 139°53'0 0.0
2016-Sep-20 13:18N 35°34' E 139°53'0 0.0
2016-Sep-20 10:33N 35°34' E 139°53'0 0.1
2016-Sep-20 08:33N 35°34' E 139°52'0 0.0
2016-Sep-20 07:33N 35°34' E 139°52'0 0.0
2016-Sep-20 06:24N 35°34' E 139°53'0 0.0
2016-Sep-20 02:33N 35°34' E 139°53'6 1.9
2016-Sep-19 23:33N 35°36' E 139°46'  
2016-Sep-17 12:28N 34°57' E 139°25'2110.8
2016-Sep-17 10:33N 35°11' E 139°44'1111.1
2016-Sep-17 09:33N 35°22' E 139°42'3 2.7
2016-Sep-17 08:33N 35°24' E 139°41'0 0.1
2016-Sep-17 07:34N 35°24' E 139°41'6 3.1
2016-Sep-17 05:33N 35°29' E 139°45'3 3.4
2016-Sep-17 04:33N 35°26' E 139°46'  

Dump ship's entire track history